createdAt,value
2018-08-07T00:00:43.898Z,23.8
2018-08-07T00:01:33.949Z,23.8
2018-08-07T00:02:24.305Z,23.8
2018-08-07T00:03:14.106Z,23.8
2018-08-07T00:04:04.179Z,23.8
2018-08-07T00:04:53.904Z,23.8
2018-08-07T00:05:44.483Z,23.8
2018-08-07T00:06:34.790Z,23.8
2018-08-07T00:07:24.869Z,23.9
2018-08-07T00:08:14.999Z,23.8
2018-08-07T00:09:04.518Z,23.9
2018-08-07T00:09:54.765Z,23.8
2018-08-07T00:10:44.613Z,23.9
2018-08-07T00:11:34.911Z,23.9
2018-08-07T00:12:24.954Z,23.9
2018-08-07T00:13:15.599Z,23.9
2018-08-07T00:14:05.680Z,23.8
2018-08-07T00:14:55.453Z,23.9
2018-08-07T00:15:45.707Z,23.8
2018-08-07T00:16:35.535Z,23.8
2018-08-07T00:17:25.598Z,23.8
2018-08-07T00:18:15.398Z,23.9
2018-08-07T00:19:06.002Z,23.9
2018-08-07T00:19:56.128Z,23.9
2018-08-07T00:20:46.180Z,23.9
2018-08-07T00:21:35.438Z,23.9
2018-08-07T00:22:25.797Z,23.9
2018-08-07T00:23:15.572Z,23.9
2018-08-07T00:24:05.862Z,23.9
2018-08-07T00:24:55.962Z,23.9
2018-08-07T00:25:45.966Z,23.9
2018-08-07T00:26:36.611Z,23.9
2018-08-07T00:27:26.414Z,23.9
2018-08-07T00:28:17.081Z,23.9
2018-08-07T00:29:06.529Z,23.9
2018-08-07T00:29:56.312Z,23.9
2018-08-07T00:30:46.353Z,23.9
2018-08-07T00:31:37.336Z,23.9
2018-08-07T00:32:26.767Z,23.9
2018-08-07T00:33:16.842Z,23.9
2018-08-07T00:34:07.485Z,23.9
2018-08-07T00:34:56.747Z,23.9
2018-08-07T00:35:47.650Z,23.9
2018-08-07T00:36:37.142Z,23.9
2018-08-07T00:37:26.638Z,23.9
2018-08-07T00:38:17.268Z,23.9
2018-08-07T00:39:07.861Z,23.9
2018-08-07T00:39:57.638Z,23.9
2018-08-07T00:40:47.777Z,23.9
2018-08-07T00:41:37.860Z,23.9
2018-08-07T00:42:26.679Z,23.9
2018-08-07T00:43:17.904Z,23.9
2018-08-07T00:44:07.727Z,23.9
2018-08-07T00:44:57.766Z,23.9
2018-08-07T00:45:47.573Z,23.9
2018-08-07T00:46:37.666Z,23.9
2018-08-07T00:47:27.377Z,23.9
2018-08-07T00:48:17.762Z,23.9
2018-08-07T00:49:07.489Z,23.9
2018-08-07T00:49:58.151Z,23.9
2018-08-07T00:50:47.935Z,23.9
2018-08-07T00:51:38.306Z,23.9
2018-08-07T00:52:28.013Z,23.9
2018-08-07T00:53:17.832Z,23.9
2018-08-07T00:54:08.456Z,23.9
2018-08-07T00:54:58.013Z,23.9
2018-08-07T00:55:48.313Z,23.9
2018-08-07T00:56:38.093Z,23.9
2018-08-07T00:57:28.173Z,23.9
2018-08-07T00:58:19.086Z,23.9
2018-08-07T00:59:08.548Z,23.9
2018-08-07T00:59:57.534Z,23.9
2018-08-07T01:00:48.400Z,23.9
2018-08-07T01:01:38.833Z,23.9
2018-08-07T01:02:28.243Z,23.9
2018-08-07T01:03:19.188Z,23.9
2018-08-07T01:04:09.260Z,23.9
2018-08-07T01:04:59.272Z,23.9
2018-08-07T01:05:48.483Z,23.9
2018-08-07T01:06:39.448Z,23.9
2018-08-07T01:07:29.607Z,23.9
2018-08-07T01:08:19.555Z,23.9
2018-08-07T01:09:09.320Z,23.9
2018-08-07T01:09:59.695Z,23.9
2018-08-07T01:10:50.030Z,23.9
2018-08-07T01:11:40.100Z,23.9
2018-08-07T01:12:30.063Z,23.9
2018-08-07T01:13:19.655Z,23.9
2018-08-07T01:14:10.588Z,23.9
2018-08-07T01:15:00.351Z,23.9
2018-08-07T01:15:50.432Z,23.9
2018-08-07T01:16:40.772Z,23.9
2018-08-07T01:17:30.847Z,23.9
2018-08-07T01:18:20.010Z,23.9
2018-08-07T01:19:10.110Z,23.9
2018-08-07T01:19:59.400Z,23.9
2018-08-07T01:20:50.822Z,23.9
2018-08-07T01:21:40.852Z,23.9
2018-08-07T01:22:30.926Z,23.9
2018-08-07T01:23:21.026Z,23.9
2018-08-07T01:24:10.794Z,23.9
2018-08-07T01:25:00.800Z,23.9
2018-08-07T01:25:50.057Z,23.9
2018-08-07T01:26:41.247Z,23.9
2018-08-07T01:27:31.347Z,23.9
2018-08-07T01:28:21.105Z,23.9
2018-08-07T01:29:11.155Z,23.9
2018-08-07T01:30:01.605Z,23.9
2018-08-07T01:30:51.096Z,23.9
2018-08-07T01:31:41.863Z,23.9
2018-08-07T01:32:31.452Z,23.9
2018-08-07T01:33:22.084Z,23.9
2018-08-07T01:34:11.240Z,23.9
2018-08-07T01:35:01.926Z,23.9
2018-08-07T01:35:51.980Z,23.9
2018-08-07T01:36:42.283Z,23.9
2018-08-07T01:37:32.342Z,23.9
2018-08-07T01:38:21.560Z,23.9
2018-08-07T01:39:12.181Z,23.9
2018-08-07T01:40:02.282Z,23.9
2018-08-07T01:40:52.345Z,23.9
2018-08-07T01:41:42.445Z,23.9
2018-08-07T01:42:32.245Z,23.9
2018-08-07T01:43:22.602Z,23.9
2018-08-07T01:44:12.055Z,23.9
2018-08-07T01:45:02.370Z,23.9
2018-08-07T01:45:52.724Z,23.9
2018-08-07T01:46:42.765Z,23.9
2018-08-07T01:47:32.555Z,23.9
2018-08-07T01:48:22.655Z,23.9
2018-08-07T01:49:12.979Z,23.9
2018-08-07T01:50:02.477Z,23.9
2018-08-07T01:50:52.774Z,23.9
2018-08-07T01:51:43.118Z,23.9
2018-08-07T01:52:32.622Z,23.9
2018-08-07T01:53:23.227Z,23.9
2018-08-07T01:54:13.638Z,23.9
2018-08-07T01:55:03.124Z,23.9
2018-08-07T01:55:52.964Z,23.9
2018-08-07T01:56:43.219Z,23.9
2018-08-07T01:57:33.884Z,23.9
2018-08-07T01:58:23.471Z,23.9
2018-08-07T01:59:13.222Z,23.9
2018-08-07T02:00:03.032Z,23.9
2018-08-07T02:00:53.422Z,23.9
2018-08-07T05:07:05.581Z,22.8
2018-08-07T05:07:55.282Z,22.8
2018-08-07T05:08:45.303Z,22.9
2018-08-07T05:09:35.335Z,22.9
2018-08-07T05:10:25.801Z,22.9
2018-08-07T05:11:15.867Z,22.9
2018-08-07T05:12:06.147Z,22.9
2018-08-07T05:12:55.913Z,22.9
2018-08-07T05:13:45.880Z,22.9
2018-08-07T05:14:35.980Z,22.9
2018-08-07T05:15:25.195Z,22.9
2018-08-07T05:16:16.440Z,22.9
2018-08-07T05:17:06.524Z,22.9
2018-08-07T05:17:55.953Z,22.9
2018-08-07T05:18:45.825Z,22.9
2018-08-07T05:19:36.444Z,22.9
2018-08-07T05:20:26.505Z,22.9
2018-08-07T05:21:16.513Z,22.9
2018-08-07T05:22:06.057Z,22.9
2018-08-07T05:22:56.360Z,22.8
2018-08-07T05:23:46.203Z,22.9
2018-08-07T05:24:36.780Z,22.9
2018-08-07T05:25:27.090Z,22.9
2018-08-07T05:26:16.620Z,22.9
2018-08-07T05:27:06.543Z,22.9
2018-08-07T05:27:56.225Z,22.9
2018-08-07T05:28:48.156Z,22.9
2018-08-07T05:29:37.210Z,22.9
2018-08-07T05:30:26.939Z,22.9
2018-08-07T05:31:16.784Z,22.9
2018-08-07T05:32:06.529Z,23
2018-08-07T05:32:57.682Z,23
2018-08-07T05:33:46.708Z,23
2018-08-07T05:34:37.862Z,23
2018-08-07T05:35:27.599Z,23
2018-08-07T05:36:17.125Z,23
2018-08-07T05:37:07.756Z,23
2018-08-07T05:37:58.087Z,23
2018-08-07T05:38:47.587Z,23
2018-08-07T05:39:37.856Z,23
2018-08-07T05:40:42.536Z,23
2018-08-07T05:41:17.324Z,23
2018-08-07T05:42:07.864Z,23
2018-08-07T05:42:58.740Z,23
2018-08-07T05:43:48.336Z,23
2018-08-07T05:44:37.809Z,23
2018-08-07T05:45:27.788Z,23.1
2018-08-07T05:46:18.145Z,23.1
2018-08-07T05:47:08.800Z,23.1
2018-08-07T05:47:58.552Z,23.1
2018-08-07T05:48:48.114Z,23.1
2018-08-07T05:49:38.941Z,23.2
2018-08-07T05:50:32.469Z,23.2
2018-08-07T05:51:24.199Z,23.3
2018-08-07T05:52:08.882Z,23.3
2018-08-07T05:52:58.919Z,23.3
2018-08-07T05:53:49.544Z,23.3
2018-08-07T05:54:39.341Z,23.3
2018-08-07T05:55:29.410Z,23.3
2018-08-07T05:56:18.966Z,23.3
2018-08-07T05:57:08.740Z,23.3
2018-08-07T05:58:00.195Z,23.4
2018-08-07T05:59:03.311Z,23.4
2018-08-07T05:59:39.756Z,23.4
2018-08-07T06:00:29.023Z,23.4
2018-08-07T06:01:18.763Z,23.4
2018-08-07T06:02:10.028Z,23.4
2018-08-07T06:02:59.743Z,23.4
2018-08-07T06:03:49.038Z,23.5
2018-08-07T06:04:39.741Z,23.4
2018-08-07T06:05:30.175Z,23.5
2018-08-07T06:06:19.436Z,23.5
2018-08-07T06:07:09.766Z,23.5
2018-08-07T06:08:00.397Z,23.5
2018-08-07T06:09:05.129Z,23.5
2018-08-07T06:09:38.878Z,23.5
2018-08-07T06:10:29.469Z,23.5
2018-08-07T06:11:20.079Z,23.6
2018-08-07T06:12:10.427Z,23.6
2018-08-07T06:13:00.743Z,23.6
2018-08-07T06:13:49.800Z,23.6
2018-08-07T06:14:40.177Z,23.6
2018-08-07T06:15:30.476Z,23.6
2018-08-07T06:16:19.715Z,23.6
2018-08-07T06:17:10.651Z,23.6
2018-08-07T06:18:00.625Z,23.6
2018-08-07T06:18:49.935Z,23.6
2018-08-07T06:19:41.288Z,23.6
2018-08-07T06:20:31.115Z,23.6
2018-08-07T06:21:21.132Z,23.6
2018-08-07T06:22:11.879Z,23.6
2018-08-07T06:23:01.507Z,23.6
2018-08-07T06:23:51.350Z,23.6
2018-08-07T06:24:41.340Z,23.6
2018-08-07T06:25:31.780Z,23.6
2018-08-07T06:26:21.485Z,23.6
2018-08-07T06:27:11.335Z,23.6
2018-08-07T06:28:01.185Z,23.6
2018-08-07T06:28:50.954Z,23.6
2018-08-07T06:29:41.337Z,23.6
2018-08-07T06:30:30.133Z,23.6
2018-08-07T06:31:21.775Z,23.6
2018-08-07T06:32:11.481Z,23.6
2018-08-07T06:33:00.896Z,23.6
2018-08-07T06:33:51.660Z,23.6
2018-08-07T06:34:41.838Z,23.6
2018-08-07T06:35:31.152Z,23.6
2018-08-07T06:36:20.500Z,23.6
2018-08-07T06:37:11.799Z,23.6
2018-08-07T06:38:02.130Z,23.6
2018-08-07T06:38:52.248Z,23.6
2018-08-07T06:39:42.915Z,23.6
2018-08-07T06:40:31.840Z,23.6
2018-08-07T06:41:22.726Z,23.6
2018-08-07T06:42:12.507Z,23.6
2018-08-07T06:43:04.567Z,23.6
2018-08-07T06:43:53.238Z,23.6
2018-08-07T06:44:43.263Z,23.6
2018-08-07T06:45:33.006Z,23.7
2018-08-07T06:46:23.067Z,23.6
2018-08-07T06:47:12.313Z,23.7
2018-08-07T06:48:03.997Z,23.6
2018-08-07T06:48:53.529Z,23.7
2018-08-07T06:49:43.322Z,23.6
2018-08-07T06:50:33.409Z,23.6
2018-08-07T06:51:23.144Z,23.7
2018-08-07T06:52:13.496Z,23.6
2018-08-07T06:53:03.385Z,23.6
2018-08-07T06:54:07.844Z,23.6
2018-08-07T06:54:43.156Z,23.7
2018-08-07T06:55:33.793Z,23.7
2018-08-07T06:56:23.632Z,23.7
2018-08-07T06:57:14.677Z,23.7
2018-08-07T06:58:04.287Z,23.7
2018-08-07T06:58:53.811Z,23.7
2018-08-07T06:59:44.387Z,23.7
2018-08-07T07:00:34.464Z,23.7
2018-08-07T07:01:24.494Z,23.7
2018-08-07T07:02:14.333Z,23.7
2018-08-07T07:03:04.765Z,23.7
2018-08-07T07:03:54.230Z,23.7
2018-08-07T07:04:44.284Z,23.7
2018-08-07T07:05:34.384Z,23.7
2018-08-07T07:06:25.330Z,23.7
2018-08-07T07:07:14.703Z,23.7
2018-08-07T07:08:03.690Z,23.7
2018-08-07T07:08:54.616Z,23.7
2018-08-07T07:09:44.717Z,23.7
2018-08-07T07:10:34.499Z,23.7
2018-08-07T07:11:25.087Z,23.7
2018-08-07T07:12:15.117Z,23.7
2018-08-07T07:13:04.908Z,23.7
2018-08-07T07:13:54.992Z,23.7
2018-08-07T07:14:44.544Z,23.8
2018-08-07T07:15:34.523Z,23.8
2018-08-07T07:16:25.436Z,23.8
2018-08-07T07:17:14.938Z,23.7
2018-08-07T07:18:05.272Z,23.8
2018-08-07T07:18:54.045Z,23.8
2018-08-07T07:19:44.475Z,23.7
2018-08-07T07:20:34.789Z,23.8
2018-08-07T07:21:25.559Z,23.8
2018-08-07T07:22:15.372Z,23.8
2018-08-07T07:23:05.191Z,23.8
2018-08-07T07:23:55.739Z,23.8
2018-08-07T07:24:45.884Z,23.8
2018-08-07T07:25:35.734Z,23.8
2018-08-07T07:26:25.992Z,23.8
2018-08-07T07:27:15.970Z,23.8
2018-08-07T07:28:05.770Z,23.8
2018-08-07T07:28:56.390Z,23.8
2018-08-07T07:29:46.265Z,23.8
2018-08-07T07:30:36.760Z,23.8
2018-08-07T07:31:26.067Z,23.8
2018-08-07T07:32:16.902Z,23.8
2018-08-07T07:33:06.945Z,23.8
2018-08-07T07:33:56.497Z,23.8
2018-08-07T07:34:48.151Z,23.8
2018-08-07T07:35:37.215Z,23.8
2018-08-07T07:36:26.473Z,23.8
2018-08-07T07:37:17.332Z,23.8
2018-08-07T07:38:07.384Z,23.8
2018-08-07T07:38:57.442Z,23.8
2018-08-07T07:39:46.710Z,23.8
2018-08-07T07:40:37.212Z,23.8
2018-08-07T07:41:27.166Z,23.8
2018-08-07T07:42:17.219Z,23.8
2018-08-07T07:43:07.225Z,23.8
2018-08-07T07:43:56.259Z,23.8
2018-08-07T07:44:47.685Z,23.8
2018-08-07T07:45:37.762Z,23.8
2018-08-07T07:46:27.766Z,23.8
2018-08-07T07:47:17.520Z,23.8
2018-08-07T07:48:07.125Z,23.8
2018-08-07T07:48:57.703Z,23.8
2018-08-07T07:49:48.332Z,23.8
2018-08-07T07:50:38.411Z,23.8
2018-08-07T07:51:27.869Z,23.8
2018-08-07T07:52:18.434Z,23.8
2018-08-07T07:53:22.951Z,23.8
2018-08-07T07:53:59.198Z,23.8
2018-08-07T07:54:48.423Z,23.8
2018-08-07T07:55:37.917Z,23.8
2018-08-07T07:56:28.811Z,23.8
2018-08-07T07:57:18.833Z,23.8
2018-08-07T07:58:08.823Z,23.8
2018-08-07T07:58:58.944Z,23.8
2018-08-07T07:59:48.470Z,23.8
2018-08-07T08:00:38.325Z,23.8
2018-08-07T08:01:29.182Z,23.8
2018-08-07T08:02:19.238Z,23.8
2018-08-07T08:03:09.334Z,23.8
2018-08-07T08:03:58.558Z,23.8
2018-08-07T08:04:49.185Z,23.8
2018-08-07T08:05:40.378Z,23.8
2018-08-07T08:06:29.268Z,23.8
2018-08-07T08:07:19.189Z,23.8
2018-08-07T08:08:09.164Z,23.8
2018-08-07T08:08:59.491Z,23.8
2018-08-07T08:09:49.794Z,23.8
2018-08-07T08:10:39.393Z,23.8
2018-08-07T08:11:29.432Z,23.8
2018-08-07T08:12:19.771Z,23.8
2018-08-07T08:13:10.147Z,23.8
2018-08-07T08:14:00.175Z,23.8
2018-08-07T08:14:49.963Z,23.8
2018-08-07T08:15:40.379Z,23.8
2018-08-07T08:16:30.107Z,23.8
2018-08-07T08:17:20.167Z,23.8
2018-08-07T08:18:09.094Z,23.8
2018-08-07T08:19:00.297Z,23.8
2018-08-07T08:19:49.903Z,23.8
2018-08-07T08:20:40.210Z,23.8
2018-08-07T08:21:29.916Z,23.8
2018-08-07T08:22:20.870Z,23.8
2018-08-07T08:23:10.611Z,23.8
2018-08-07T08:24:00.680Z,23.8
2018-08-07T08:24:50.722Z,23.8
2018-08-07T08:25:41.094Z,23.8
2018-08-07T08:26:30.874Z,23.8
2018-08-07T08:27:20.740Z,23.8
2018-08-07T08:28:09.995Z,23.8
2018-08-07T08:29:01.608Z,23.8
2018-08-07T08:29:52.596Z,23.8
2018-08-07T08:30:40.095Z,23.8
2018-08-07T08:31:31.520Z,23.8
2018-08-07T08:32:21.411Z,23.8
2018-08-07T08:33:11.099Z,23.8
2018-08-07T08:34:01.711Z,23.8
2018-08-07T08:34:51.639Z,23.8
2018-08-07T08:35:42.656Z,23.8
2018-08-07T08:36:31.914Z,23.8
2018-08-07T08:37:21.641Z,23.8
2018-08-07T08:38:12.038Z,23.8
2018-08-07T08:39:02.143Z,23.8
2018-08-07T08:39:51.889Z,23.8
2018-08-07T08:40:41.221Z,23.8
2018-08-07T08:41:31.245Z,23.8
2018-08-07T08:42:22.423Z,23.8
2018-08-07T08:43:11.899Z,23.8
2018-08-07T08:44:01.940Z,23.8
2018-08-07T08:44:52.093Z,23.8
2018-08-07T08:45:42.374Z,23.8
2018-08-07T08:46:32.716Z,23.8
2018-08-07T08:47:22.471Z,23.8
2018-08-07T08:48:12.440Z,23.8
2018-08-07T08:49:02.378Z,23.8
2018-08-07T08:49:51.418Z,23.8
2018-08-07T08:50:41.931Z,23.8
2018-08-07T08:51:32.282Z,23.8
2018-08-07T08:52:22.898Z,23.8
2018-08-07T08:53:12.964Z,23.8
2018-08-07T08:54:03.475Z,23.8
2018-08-07T08:54:52.838Z,23.8
2018-08-07T08:55:42.687Z,23.8
2018-08-07T08:56:33.252Z,23.8
2018-08-07T08:57:23.604Z,23.8
2018-08-07T08:58:13.099Z,23.8
2018-08-07T08:59:02.957Z,23.9
2018-08-07T08:59:53.481Z,23.8
2018-08-07T09:00:42.737Z,23.8
2018-08-07T09:01:32.609Z,23.9
2018-08-07T09:02:23.961Z,23.9
2018-08-07T09:03:13.239Z,23.8
2018-08-07T09:04:03.839Z,23.8
2018-08-07T09:21:28.329Z,23.8
2018-08-07T09:22:18.702Z,23.9
2018-08-07T09:23:09.354Z,23.9
2018-08-07T09:23:58.803Z,23.9
2018-08-07T09:24:49.382Z,23.9
2018-08-07T09:25:42.561Z,23.9
2018-08-07T09:26:29.289Z,23.9
2018-08-07T09:27:19.029Z,23.9
2018-08-07T09:28:09.637Z,23.9
2018-08-07T09:28:59.508Z,23.9
2018-08-07T09:29:49.489Z,23.9
2018-08-07T09:30:39.359Z,23.9
2018-08-07T09:31:29.564Z,23.9
2018-08-07T09:32:19.735Z,23.9
2018-08-07T09:33:10.129Z,23.9
2018-08-07T09:33:59.844Z,23.9
2018-08-07T09:34:50.208Z,23.9
2018-08-07T09:35:39.725Z,23.9
2018-08-07T09:36:30.338Z,23.9
2018-08-07T09:37:20.173Z,23.9
2018-08-07T09:38:10.473Z,23.9
2018-08-07T09:39:00.577Z,23.9
2018-08-07T09:39:50.791Z,23.9
2018-08-07T09:40:40.459Z,23.9
2018-08-07T09:41:30.200Z,23.9
2018-08-07T09:42:20.816Z,23.9
2018-08-07T09:43:10.605Z,23.9
2018-08-07T09:44:00.712Z,23.9
2018-08-07T09:44:50.829Z,23.9
2018-08-07T09:45:40.810Z,23.9
2018-08-07T09:46:31.645Z,23.9
2018-08-07T09:47:20.431Z,23.9
2018-08-07T09:48:11.280Z,23.9
2018-08-07T09:49:01.023Z,23.9
2018-08-07T09:49:52.694Z,23.9
2018-08-07T09:50:40.901Z,23.9
2018-08-07T09:51:31.264Z,23.9
2018-08-07T09:52:22.280Z,23.9
2018-08-07T09:53:10.798Z,23.9
2018-08-07T09:54:01.670Z,23.9
2018-08-07T09:54:51.479Z,23.9
2018-08-07T09:55:41.261Z,23.9
2018-08-07T09:56:31.595Z,23.9
2018-08-07T09:57:21.638Z,23.9
2018-08-07T09:58:11.478Z,23.9
2018-08-07T09:59:01.247Z,23.9
2018-08-07T09:59:51.579Z,23.9
2018-08-07T10:00:41.702Z,23.9
2018-08-07T10:01:31.448Z,23.9
2018-08-07T10:02:22.345Z,23.9
2018-08-07T10:03:12.163Z,23.9
2018-08-07T10:04:01.906Z,23.9
2018-08-07T10:04:51.723Z,23.9
2018-08-07T10:05:43.101Z,23.9
2018-08-07T10:06:32.425Z,23.9
2018-08-07T10:07:22.522Z,23.9
2018-08-07T10:08:12.267Z,23.9
2018-08-07T10:09:01.757Z,23.9
2018-08-07T10:09:52.355Z,23.9
2018-08-07T10:10:42.480Z,23.9
2018-08-07T10:11:32.501Z,23.9
2018-08-07T10:12:23.285Z,23.9
2018-08-07T10:13:13.252Z,23.9
2018-08-07T10:14:02.704Z,23.9
2018-08-07T10:14:52.791Z,23.9
2018-08-07T10:15:43.089Z,23.9
2018-08-07T10:16:33.511Z,23.9
2018-08-07T10:17:23.311Z,23.9
2018-08-07T10:18:13.078Z,23.9
2018-08-07T10:19:03.662Z,23.9
2018-08-07T10:19:53.195Z,23.9
2018-08-07T10:20:43.244Z,23.9
2018-08-07T10:21:33.583Z,23.9
2018-08-07T10:22:23.108Z,23.9
2018-08-07T10:23:14.544Z,23.9
2018-08-07T10:24:03.737Z,23.9
2018-08-07T10:24:53.818Z,23.9
2018-08-07T10:25:44.170Z,23.9
2018-08-07T10:26:33.641Z,23.9
2018-08-07T10:27:24.553Z,23.9
2018-08-07T10:28:13.840Z,23.9
2018-08-07T10:29:04.111Z,23.9
2018-08-07T10:29:54.272Z,23.9
2018-08-07T10:30:44.537Z,23.9
2018-08-07T10:31:34.567Z,23.9
2018-08-07T10:32:23.934Z,23.9
2018-08-07T10:33:14.035Z,23.9
2018-08-07T10:34:04.554Z,23.9
2018-08-07T10:34:55.003Z,23.9
2018-08-07T10:35:44.659Z,23.9
2018-08-07T10:36:34.478Z,23.9
2018-08-07T10:37:24.810Z,23.9
2018-08-07T10:38:14.881Z,23.9
2018-08-07T10:39:04.681Z,23.9
2018-08-07T10:39:55.084Z,23.9
2018-08-07T10:40:46.687Z,23.9
2018-08-07T10:41:34.333Z,23.9
2018-08-07T10:42:24.947Z,23.9
2018-08-07T10:43:18.038Z,23.9
2018-08-07T10:44:05.878Z,23.9
2018-08-07T10:44:54.583Z,23.9
2018-08-07T10:45:45.177Z,23.9
2018-08-07T10:46:36.374Z,23.9
2018-08-07T10:47:24.735Z,23.9
2018-08-07T10:48:15.968Z,23.9
2018-08-07T10:49:05.493Z,23.9
2018-08-07T10:49:55.549Z,23.9
2018-08-07T10:50:45.688Z,23.9
2018-08-07T10:51:35.363Z,23.9
2018-08-07T10:52:26.875Z,23.9
2018-08-07T10:53:15.524Z,23.9
2018-08-07T10:54:06.398Z,23.9
2018-08-07T10:54:55.897Z,23.9
2018-08-07T10:55:45.701Z,23.9
2018-08-07T10:56:38.191Z,23.9
2018-08-07T10:57:26.208Z,23.9
2018-08-07T10:58:17.198Z,23.9
2018-08-07T10:59:07.027Z,23.9
2018-08-07T10:59:56.046Z,23.9
2018-08-07T11:00:46.052Z,23.9
2018-08-07T11:01:36.470Z,23.9
2018-08-07T11:02:27.052Z,23.9
2018-08-07T11:03:16.573Z,23.9
2018-08-07T11:04:06.987Z,23.9
2018-08-07T11:04:57.248Z,23.9
2018-08-07T11:05:48.369Z,23.9
2018-08-07T11:06:37.150Z,23.9
2018-08-07T11:07:26.870Z,23.9
2018-08-07T11:08:17.181Z,23.9
2018-08-07T11:09:06.724Z,23.9
2018-08-07T11:09:57.666Z,23.9
2018-08-07T11:10:47.150Z,23.9
2018-08-07T11:11:37.468Z,23.9
2018-08-07T11:12:27.823Z,23.9
2018-08-07T11:13:17.681Z,23.9
2018-08-07T11:14:07.401Z,23.9
2018-08-07T11:14:58.067Z,23.9
2018-08-07T11:15:47.830Z,23.9
2018-08-07T11:16:37.866Z,23.9
2018-08-07T11:17:27.968Z,23.9
2018-08-07T11:18:17.203Z,23.9
2018-08-07T11:19:07.811Z,23.9
2018-08-07T11:19:58.176Z,23.9
2018-08-07T11:20:47.966Z,23.9
2018-08-07T11:21:38.072Z,23.9
2018-08-07T11:22:27.794Z,23.9
2018-08-07T11:23:18.173Z,23.9
2018-08-07T11:24:08.198Z,23.9
2018-08-07T11:24:58.695Z,23.9
2018-08-07T11:25:48.358Z,23.9
2018-08-07T11:26:38.977Z,23.9
2018-08-07T11:27:28.777Z,23.9
2018-08-07T11:28:18.276Z,23.9
2018-08-07T11:29:08.902Z,23.9
2018-08-07T11:29:59.854Z,23.9
2018-08-07T11:30:48.753Z,23.9
2018-08-07T11:31:39.125Z,23.9
2018-08-07T11:32:29.144Z,23.9
2018-08-07T11:33:18.658Z,23.9
2018-08-07T11:34:09.585Z,23.9
2018-08-07T11:34:59.367Z,23.9
2018-08-07T11:35:49.212Z,23.9
2018-08-07T11:36:39.455Z,23.9
2018-08-07T11:37:28.751Z,23.9
2018-08-07T11:38:19.136Z,23.9
2018-08-07T11:39:09.745Z,23.9
2018-08-07T11:39:59.813Z,23.9
2018-08-07T11:40:49.831Z,23.9
2018-08-07T11:41:39.603Z,23.9
2018-08-07T11:42:29.633Z,23.9
2018-08-07T11:43:19.909Z,23.9
2018-08-07T11:44:10.128Z,23.9
2018-08-07T11:45:00.169Z,23.9
2018-08-07T11:45:50.216Z,23.9
2018-08-07T11:46:39.392Z,23.9
2018-08-07T11:47:30.019Z,23.9
2018-08-07T11:48:21.108Z,23.9
2018-08-07T11:49:10.676Z,23.9
2018-08-07T11:50:00.736Z,23.9
2018-08-07T11:50:50.666Z,23.9
2018-08-07T11:51:40.772Z,23.9
2018-08-07T11:52:31.334Z,23.9
2018-08-07T11:53:21.183Z,23.9
2018-08-07T11:54:11.066Z,23.9
2018-08-07T11:55:00.606Z,23.9
2018-08-07T11:55:51.229Z,23.9
2018-08-07T11:56:41.030Z,23.9
2018-08-07T11:57:30.571Z,23.9
2018-08-07T11:58:21.333Z,23.9
2018-08-07T11:59:11.408Z,23.9
2018-08-07T12:00:01.117Z,23.9
2018-08-07T12:00:51.363Z,23.9
2018-08-07T12:01:41.676Z,23.9
2018-08-07T12:02:31.543Z,23.9
2018-08-07T12:03:21.571Z,23.9
2018-08-07T12:04:11.697Z,23.9
2018-08-07T12:05:01.950Z,23.9
2018-08-07T12:05:52.040Z,23.9
2018-08-07T12:06:42.061Z,23.9
2018-08-07T12:07:32.182Z,23.9
2018-08-07T12:08:20.945Z,23.9
2018-08-07T12:09:11.162Z,23.9
2018-08-07T12:10:02.115Z,23.9
2018-08-07T12:10:52.135Z,23.9
2018-08-07T12:11:42.494Z,23.9
2018-08-07T12:12:32.543Z,23.9
2018-08-07T12:13:21.219Z,23.9
2018-08-07T12:14:12.465Z,23.9
2018-08-07T12:15:02.469Z,23.9
2018-08-07T12:15:51.725Z,23.9
2018-08-07T12:16:42.354Z,23.9
2018-08-07T12:17:32.908Z,23.9
2018-08-07T12:18:22.946Z,23.9
2018-08-07T12:19:12.201Z,23.9
2018-08-07T12:20:02.833Z,23.9
2018-08-07T12:20:52.881Z,23.9
2018-08-07T12:21:43.837Z,23.9
2018-08-07T12:22:33.343Z,23.9
2018-08-07T12:23:23.079Z,23.9
2018-08-07T12:24:12.677Z,23.9
2018-08-07T12:25:03.476Z,23.9
2018-08-07T12:25:53.319Z,23.9
2018-08-07T12:26:43.310Z,23.9
2018-08-07T12:27:33.736Z,23.9
2018-08-07T12:28:23.761Z,23.9
2018-08-07T12:29:13.539Z,23.9
2018-08-07T12:30:03.646Z,23.9
2018-08-07T12:30:53.168Z,23.9
2018-08-07T12:31:58.465Z,23.9
2018-08-07T12:32:33.606Z,23.9
2018-08-07T12:33:23.914Z,23.9
2018-08-07T12:34:14.253Z,23.9
2018-08-07T12:35:04.786Z,23.9
2018-08-07T12:35:53.344Z,24
2018-08-07T12:36:43.634Z,23.9
2018-08-07T12:37:33.671Z,23.9
2018-08-07T12:38:24.038Z,23.9
2018-08-07T12:39:14.620Z,24
2018-08-07T12:40:04.436Z,23.9
2018-08-07T12:40:53.420Z,24
2018-08-07T12:41:44.873Z,23.9
2018-08-07T12:42:34.683Z,24
2018-08-07T12:43:24.758Z,24
2018-08-07T12:44:14.249Z,24
2018-08-07T12:45:04.843Z,24
2018-08-07T12:45:54.357Z,24
2018-08-07T12:46:46.203Z,24
2018-08-07T12:47:35.291Z,24
2018-08-07T12:48:25.062Z,24
2018-08-07T12:49:15.127Z,24
2018-08-07T12:50:05.215Z,24
2018-08-07T12:50:55.334Z,24
2018-08-07T12:51:46.022Z,24
2018-08-07T12:52:35.676Z,24
2018-08-07T12:53:26.868Z,24
2018-08-07T12:54:15.775Z,24
2018-08-07T12:55:05.111Z,24
2018-08-07T12:55:55.914Z,24
2018-08-07T12:56:45.414Z,24
2018-08-07T12:57:36.098Z,24
2018-08-07T12:58:25.874Z,24
2018-08-07T12:59:14.822Z,24
2018-08-07T13:00:06.046Z,24
2018-08-07T13:00:55.817Z,24
2018-08-07T13:01:46.134Z,24
2018-08-07T13:02:35.391Z,24
2018-08-07T13:03:26.270Z,24
2018-08-07T13:04:16.561Z,24
2018-08-07T13:05:05.926Z,24
2018-08-07T13:05:56.493Z,24
2018-08-07T13:06:47.164Z,24
2018-08-07T13:07:36.909Z,24
2018-08-07T13:08:25.845Z,24
2018-08-07T13:09:16.463Z,24
2018-08-07T13:10:05.967Z,24
2018-08-07T13:10:57.119Z,24
2018-08-07T13:11:46.953Z,24
2018-08-07T13:12:37.267Z,24
2018-08-07T13:13:27.025Z,24
2018-08-07T13:14:17.412Z,24
2018-08-07T13:15:06.890Z,24
2018-08-07T13:15:56.996Z,24
2018-08-07T13:16:46.849Z,24
2018-08-07T13:17:38.320Z,24
2018-08-07T13:18:26.895Z,24
2018-08-07T13:19:17.796Z,24
2018-08-07T13:20:07.028Z,24
2018-08-07T13:20:57.098Z,24.1
2018-08-07T13:21:47.992Z,24
2018-08-07T13:22:38.092Z,24
2018-08-07T13:23:27.027Z,24.1
2018-08-07T13:24:17.371Z,24.1
2018-08-07T13:25:07.461Z,24.1
2018-08-07T13:25:59.087Z,24
2018-08-07T13:26:48.389Z,24
2018-08-07T13:27:37.880Z,24.1
2018-08-07T13:28:28.547Z,24.1
2018-08-07T13:29:17.700Z,24.1
2018-08-07T13:30:07.767Z,24.1
2018-08-07T13:30:57.602Z,24
2018-08-07T13:31:48.143Z,24.1
2018-08-07T13:32:38.272Z,24
2018-08-07T13:33:28.784Z,24.1
2018-08-07T13:34:18.728Z,24
2018-08-07T13:35:08.220Z,24.1
2018-08-07T13:35:58.000Z,24.1
2018-08-07T13:36:48.238Z,24.1
2018-08-07T13:37:39.083Z,24
2018-08-07T13:38:28.875Z,24.1
2018-08-07T13:39:18.398Z,24.1
2018-08-07T13:40:08.967Z,24.1
2018-08-07T13:40:59.658Z,24.1
2018-08-07T13:41:48.784Z,24
2018-08-07T13:42:39.451Z,24.1
2018-08-07T13:43:29.128Z,24.1
2018-08-07T13:44:19.753Z,24.1
2018-08-07T13:45:09.811Z,24.1
2018-08-07T13:45:59.924Z,24.1
2018-08-07T13:46:49.948Z,24.1
2018-08-07T13:47:39.955Z,24.1
2018-08-07T13:48:30.103Z,24.1
2018-08-07T13:49:19.833Z,24.1
2018-08-07T13:50:10.161Z,24.1
2018-08-07T13:50:59.931Z,24.1
2018-08-07T13:51:49.469Z,24.1
2018-08-07T13:52:40.403Z,24.1
2018-08-07T13:53:30.433Z,24.1
2018-08-07T13:54:20.491Z,24.1
2018-08-07T13:55:10.022Z,24.1
2018-08-07T13:56:02.411Z,24.1
2018-08-07T13:56:50.465Z,24.1
2018-08-07T13:57:40.266Z,24.1
2018-08-07T13:58:30.607Z,24.1
2018-08-07T13:59:20.343Z,24.1
2018-08-07T14:00:10.455Z,24.1
2018-08-07T14:01:00.793Z,24.1
2018-08-07T14:01:49.751Z,24.1
2018-08-07T14:02:40.349Z,24.1
2018-08-07T14:03:31.146Z,24.1
2018-08-07T14:04:20.218Z,24.1
2018-08-07T14:05:10.844Z,24.1
2018-08-07T14:06:01.231Z,24.1
2018-08-07T14:06:50.484Z,24.1
2018-08-07T14:07:40.585Z,24.1
2018-08-07T14:08:31.391Z,24.1
2018-08-07T14:09:21.260Z,24.1
2018-08-07T14:10:11.848Z,24.1
2018-08-07T14:11:01.056Z,24.1
2018-08-07T14:11:51.355Z,24.1
2018-08-07T14:12:41.301Z,24.1
2018-08-07T14:13:31.758Z,24.1
2018-08-07T14:14:21.561Z,24.1
2018-08-07T14:15:11.044Z,24.1
2018-08-07T14:16:01.717Z,24.1
2018-08-07T14:16:51.540Z,24.1
2018-08-07T14:17:42.363Z,24.1
2018-08-07T14:18:32.180Z,24.1
2018-08-07T14:19:21.785Z,24.1
2018-08-07T14:20:12.279Z,24.1
2018-08-07T14:21:01.501Z,24.1
2018-08-07T14:21:52.143Z,24.1
2018-08-07T14:22:42.203Z,24.1
2018-08-07T14:23:32.865Z,24.1
2018-08-07T14:24:22.357Z,24.1
2018-08-07T14:25:11.917Z,24.1
2018-08-07T14:26:01.331Z,24.1
2018-08-07T14:26:52.278Z,24.1
2018-08-07T14:27:42.446Z,24.1
2018-08-07T14:28:33.092Z,24.1
2018-08-07T14:29:22.097Z,24.1
2018-08-07T14:30:11.940Z,24.1
2018-08-07T14:31:02.585Z,24.1
2018-08-07T14:31:52.973Z,24.1
2018-08-07T14:32:43.271Z,24.1